createdAt,value
2017-07-31T00:00:02.931Z,63.54
2017-07-31T00:05:02.845Z,63.26
2017-07-31T00:10:03.386Z,63.16
2017-07-31T00:15:02.784Z,62.55
2017-07-31T00:20:03.215Z,61.88
2017-07-31T00:25:03.509Z,61.69
2017-07-31T00:30:02.816Z,61.11
2017-07-31T00:35:03.300Z,60.73
2017-07-31T00:40:02.629Z,60.16
2017-07-31T00:50:03.466Z,59.68
2017-07-31T00:55:02.862Z,59.39
2017-07-31T01:00:03.302Z,59.11
2017-07-31T01:05:02.648Z,58.62
2017-07-31T01:10:03.186Z,58.44
2017-07-31T01:15:03.524Z,58.15
2017-07-31T01:20:02.959Z,58.12
2017-07-31T01:25:03.288Z,58.12
2017-07-31T01:30:03.563Z,57.92
2017-07-31T01:35:03.009Z,57.83
2017-07-31T01:40:03.353Z,57.73
2017-07-31T01:45:02.614Z,57.51
2017-07-31T01:50:02.907Z,57.51
2017-07-31T01:55:03.340Z,57.51
2017-07-31T02:00:02.770Z,57.42
2017-07-31T02:05:03.086Z,57.32
2017-07-31T02:10:03.491Z,57.23
2017-07-31T02:15:02.856Z,57.2
2017-07-31T02:20:03.280Z,57.01
2017-07-31T02:25:02.684Z,56.91
2017-07-31T02:30:03.094Z,56.82
2017-07-31T02:35:03.329Z,57.01
2017-07-31T02:40:02.708Z,56.91
2017-07-31T02:45:03.198Z,57.01
2017-07-31T02:50:02.647Z,56.82
2017-07-31T02:55:02.928Z,56.82
2017-07-31T03:00:03.361Z,56.88
2017-07-31T03:05:02.665Z,56.79
2017-07-31T03:10:03.006Z,56.79
2017-07-31T03:15:03.438Z,56.79
2017-07-31T03:20:02.859Z,56.79
2017-07-31T03:25:03.121Z,56.69
2017-07-31T03:30:03.529Z,56.6
2017-07-31T03:35:02.804Z,56.4
2017-07-31T03:40:03.252Z,56.31
2017-07-31T03:45:03.556Z,56.12
2017-07-31T03:50:02.838Z,55.93
2017-07-31T03:55:03.144Z,55.83
2017-07-31T04:00:02.636Z,55.64
2017-07-31T04:05:02.980Z,55.54
2017-07-31T04:10:03.458Z,55.54
2017-07-31T04:15:02.809Z,55.45
2017-07-31T04:20:03.285Z,55.35
2017-07-31T04:25:02.770Z,55.35
2017-07-31T04:30:03.462Z,55.35
2017-07-31T04:35:02.879Z,55.26
2017-07-31T04:40:03.256Z,55.16
2017-07-31T04:45:02.679Z,54.97
2017-07-31T04:50:02.948Z,54.71
2017-07-31T04:55:03.240Z,54.43
2017-07-31T05:00:03.501Z,54.16
2017-07-31T05:05:02.741Z,53.97
2017-07-31T05:10:03.206Z,54.48
2017-07-31T05:15:02.627Z,54.77
2017-07-31T05:20:02.921Z,54.86
2017-07-31T05:25:03.231Z,54.96
2017-07-31T05:30:03.530Z,55.44
2017-07-31T05:35:02.936Z,55.27
2017-07-31T05:40:03.313Z,55.27
2017-07-31T05:45:02.609Z,56.07
2017-07-31T05:50:03.034Z,58.17
2017-07-31T05:55:03.421Z,58.69
2017-07-31T06:00:02.706Z,60.03
2017-07-31T06:05:03.145Z,61.3
2017-07-31T06:10:03.502Z,63.16
2017-07-31T06:15:02.915Z,64.15
2017-07-31T06:20:03.241Z,65.62
2017-07-31T06:25:03.534Z,69.02
2017-07-31T06:30:02.734Z,75.31
2017-07-31T06:35:03.113Z,78.13
2017-07-31T06:40:03.479Z,78.65
2017-07-31T06:45:02.742Z,84.28
2017-07-31T06:50:03.093Z,86.35
2017-07-31T06:55:03.543Z,90.09
2017-07-31T07:00:02.840Z,92.07
2017-07-31T07:05:03.065Z,95.68
2017-07-31T07:10:03.511Z,98.2
2017-07-31T07:15:02.878Z,99.99
2017-07-31T07:20:03.373Z,99.99
2017-07-31T07:25:02.699Z,99.99
2017-07-31T07:30:03.132Z,99.99
2017-07-31T07:35:03.454Z,99.99
2017-07-31T07:40:02.893Z,99.99
2017-07-31T07:45:03.380Z,99.99
2017-07-31T07:50:02.839Z,98.88
2017-07-31T07:55:03.288Z,95.33
2017-07-31T08:00:03.546Z,93.59
2017-07-31T08:05:02.928Z,91.05
2017-07-31T08:10:03.259Z,89.93
2017-07-31T08:15:03.538Z,86.96
2017-07-31T08:20:02.922Z,91.69
2017-07-31T08:25:03.371Z,97.81
2017-07-31T08:30:03.027Z,99.99
2017-07-31T08:35:03.371Z,99.99
2017-07-31T08:40:02.773Z,99.99
2017-07-31T08:45:03.059Z,99.99
2017-07-31T08:50:03.347Z,99.99
2017-07-31T08:55:02.760Z,99.99
2017-07-31T09:00:03.185Z,99.99
2017-07-31T09:05:03.512Z,99.99
2017-07-31T09:10:02.933Z,99.99
2017-07-31T09:15:03.293Z,99.99
2017-07-31T09:20:02.745Z,99.99
2017-07-31T09:25:03.075Z,99.99
2017-07-31T09:30:03.468Z,99.99
2017-07-31T09:35:02.774Z,99.99
2017-07-31T09:40:03.298Z,99.75
2017-07-31T09:45:03.561Z,99.9
2017-07-31T09:50:02.798Z,99.99
2017-07-31T09:55:03.060Z,99.99
2017-07-31T10:00:03.376Z,99.99
2017-07-31T10:05:03.610Z,99.99
2017-07-31T10:10:03.100Z,99.99
2017-07-31T10:15:03.397Z,99.99
2017-07-31T10:20:02.691Z,99.99
2017-07-31T10:25:02.940Z,99.99
2017-07-31T10:30:03.214Z,99.99
2017-07-31T10:35:02.672Z,99.99
2017-07-31T10:40:03.236Z,99.99
2017-07-31T10:45:02.719Z,99.99
2017-07-31T10:50:02.953Z,99.99
2017-07-31T10:55:03.366Z,99.99
2017-07-31T11:00:02.811Z,99.99
2017-07-31T11:05:03.207Z,99.65
2017-07-31T11:10:03.503Z,97.81
2017-07-31T11:15:02.780Z,97.91
2017-07-31T11:20:03.086Z,89.31
2017-07-31T11:25:03.480Z,93.4
2017-07-31T11:30:02.794Z,91.94
2017-07-31T11:35:03.248Z,90.24
2017-07-31T11:40:02.695Z,87.27
2017-07-31T11:45:03.033Z,84.57
2017-07-31T11:50:03.466Z,82.05
2017-07-31T11:55:02.650Z,82.78
2017-07-31T12:00:02.856Z,84.63
2017-07-31T12:05:03.139Z,85.06
2017-07-31T12:10:02.621Z,86.04
2017-07-31T12:15:03.068Z,85.19
2017-07-31T12:20:03.407Z,78.83
2017-07-31T12:25:02.706Z,79.22
2017-07-31T12:30:03.146Z,74.86
2017-07-31T12:35:03.401Z,72.17
2017-07-31T12:40:02.647Z,69.45
2017-07-31T12:45:03.167Z,70.78
2017-07-31T12:50:03.490Z,71.42
2017-07-31T12:55:02.860Z,71.1
2017-07-31T13:00:03.155Z,70.49
2017-07-31T13:05:02.632Z,69.48
2017-07-31T13:10:03.086Z,69.77
2017-07-31T13:15:03.319Z,71.9
2017-07-31T13:20:02.773Z,75.03
2017-07-31T13:25:03.064Z,76.39
2017-07-31T13:30:03.315Z,74.45
2017-07-31T13:35:02.655Z,75.87
2017-07-31T13:40:03.430Z,75.23
2017-07-31T13:45:02.795Z,72.41
2017-07-31T13:50:03.158Z,73.19
2017-07-31T13:55:02.638Z,75.61
2017-07-31T14:00:02.978Z,75.51
2017-07-31T14:05:03.408Z,76.45
2017-07-31T14:10:02.932Z,74.74
2017-07-31T14:15:03.194Z,74
2017-07-31T14:20:03.537Z,72.93
2017-07-31T14:25:02.944Z,73.13
2017-07-31T14:30:03.354Z,72.55
2017-07-31T14:35:02.818Z,73.71
2017-07-31T14:40:03.085Z,73.16
2017-07-31T14:45:03.381Z,71.96
2017-07-31T14:50:02.821Z,71.67
2017-07-31T14:55:03.276Z,72.16
2017-07-31T15:00:02.695Z,70.93
2017-07-31T15:05:03.278Z,69.76
2017-07-31T15:10:02.619Z,71.19
2017-07-31T15:15:02.936Z,73.19
2017-07-31T15:20:03.385Z,74.18
2017-07-31T15:25:02.791Z,75.73
2017-07-31T15:30:03.077Z,76.99
2017-07-31T15:35:03.319Z,75.48
2017-07-31T15:40:02.618Z,76.19
2017-07-31T15:45:02.952Z,73.67
2017-07-31T15:50:03.409Z,73.28
2017-07-31T15:55:02.697Z,73.64
2017-07-31T16:00:03.005Z,74.32
2017-07-31T16:05:03.337Z,74.02
2017-07-31T16:10:02.649Z,72.73
2017-07-31T16:15:03.047Z,74.15
2017-07-31T16:20:03.342Z,76.72
2017-07-31T16:25:02.755Z,76.66
2017-07-31T16:30:03.070Z,76.7
2017-07-31T16:35:03.344Z,75.73
2017-07-31T16:40:02.849Z,75.7
2017-07-31T16:45:03.216Z,76.6
2017-07-31T16:50:02.615Z,77.57
2017-07-31T16:55:03.024Z,78.15
2017-07-31T17:00:03.637Z,78.77
2017-07-31T17:05:03.157Z,78.97
2017-07-31T17:10:03.491Z,78.15
2017-07-31T17:15:02.704Z,78.64
2017-07-31T17:20:03.063Z,80.09
2017-07-31T17:25:03.419Z,79.9
2017-07-31T17:30:02.650Z,80.47
2017-07-31T17:35:02.881Z,80.67
2017-07-31T17:40:03.357Z,81.15
2017-07-31T17:45:02.873Z,81.54
2017-07-31T17:50:03.201Z,81.93
2017-07-31T17:55:03.431Z,82.66
2017-07-31T18:00:02.829Z,83.73
2017-07-31T18:05:03.109Z,84.17
2017-07-31T18:10:03.443Z,86.98
2017-07-31T18:15:02.907Z,87.27
2017-07-31T18:20:03.378Z,87.27
2017-07-31T18:25:02.681Z,87.75
2017-07-31T18:30:02.953Z,89.01
2017-07-31T18:35:03.413Z,89.54
2017-07-31T18:40:02.876Z,86.93
2017-07-31T18:45:03.109Z,89.54
2017-07-31T18:50:03.497Z,93.66
2017-07-31T18:55:02.892Z,97.04
2017-07-31T19:00:03.099Z,98.54
2017-07-31T19:05:03.465Z,99.99
2017-07-31T19:10:02.812Z,99.99
2017-07-31T19:15:03.049Z,99.99
2017-07-31T19:20:03.321Z,99.99
2017-07-31T19:25:02.732Z,99.99
2017-07-31T19:30:03.154Z,99.99
2017-07-31T19:35:02.615Z,99.99
2017-07-31T19:40:02.983Z,99.99
2017-07-31T19:45:03.281Z,99.99
2017-07-31T19:50:03.564Z,99.99
2017-07-31T19:55:02.965Z,99.99
2017-07-31T20:00:03.370Z,99.99
2017-07-31T20:05:02.787Z,99.99
2017-07-31T20:10:03.110Z,99.99
2017-07-31T20:15:03.531Z,99.99
2017-07-31T20:20:02.768Z,99.99
2017-07-31T20:25:02.959Z,99.79
2017-07-31T20:30:03.356Z,99.02
2017-07-31T20:35:02.805Z,98.34
2017-07-31T20:40:03.134Z,98.1
2017-07-31T20:45:03.417Z,97.72
2017-07-31T20:50:02.808Z,97.42
2017-07-31T20:55:03.309Z,96.99
2017-07-31T21:00:02.558Z,96.42
2017-07-31T21:05:02.862Z,94.78
2017-07-31T21:10:03.164Z,94.4
2017-07-31T21:15:03.428Z,94.01
2017-07-31T21:20:02.599Z,93.82
2017-07-31T21:25:02.856Z,93.24
2017-07-31T21:30:03.338Z,92.23
2017-07-31T21:35:02.706Z,91.85
2017-07-31T21:40:03.119Z,91.85
2017-07-31T21:45:02.610Z,91.66
2017-07-31T21:50:02.908Z,90.26
2017-07-31T21:55:03.235Z,89.01
2017-07-31T22:00:03.818Z,88.06
2017-07-31T22:05:03.199Z,87.29
2017-07-31T22:10:02.638Z,86.52
2017-07-31T22:15:03.035Z,86.13
2017-07-31T22:20:03.437Z,85.22
2017-07-31T22:25:02.905Z,84.94
2017-07-31T22:30:03.204Z,85.32
2017-07-31T22:35:03.455Z,86.18
2017-07-31T22:40:02.918Z,86.38
2017-07-31T22:45:03.415Z,86.57
2017-07-31T22:50:02.760Z,86.76
2017-07-31T22:55:03.150Z,86.09
2017-07-31T23:00:03.765Z,86.28
2017-07-31T23:05:03.485Z,85.47
2017-07-31T23:10:02.894Z,85.08
2017-07-31T23:15:03.168Z,85.18
2017-07-31T23:20:03.412Z,85.08
2017-07-31T23:25:02.721Z,85.08
2017-07-31T23:30:03.106Z,85.28
2017-07-31T23:35:03.451Z,86.05
2017-07-31T23:40:02.878Z,86.24
2017-07-31T23:45:03.206Z,86.05
2017-07-31T23:50:02.562Z,86.33
2017-07-31T23:55:02.956Z,86.33
